Time;durP1;ratioP1;P1;durP2;ratioP2;P2;SDS_P1;SDS_P2;PMS_P1;PMS_P2;Temp;Humidity;BMP_temperature;BMP_pressure;BME280_temperature;BME280_humidity;BME280_pressure;Samples;Min_cycle;Max_cycle;Signal;HPM_P1;HPM_P2
2022/12/19 00:00:45;;;;;;;;;29.50;23.00;;;;;7.37;62.98;101228.38;5031824;28;46131;-63
2022/12/19 00:03:11;;;;;;;;;28.50;21.25;;;;;7.39;62.75;101235.31;5046644;28;45322;-62
2022/12/19 00:05:39;;;;;;;;;25.00;22.75;;;;;7.41;62.92;101254.38;5046626;28;47195;-62
2022/12/19 00:08:08;;;;;;;;;28.50;23.50;;;;;7.41;62.77;101248.31;5039558;28;45517;-62
2022/12/19 00:10:33;;;;;;;;;31.00;24.00;;;;;7.45;62.77;101246.56;5033224;28;45764;-63
2022/12/19 00:12:59;;;;;;;;;29.75;21.50;;;;;7.47;62.99;101240.50;5044653;28;63427;-62
2022/12/19 00:15:24;;;;;;;;;25.00;21.50;;;;;7.48;62.88;101241.34;5045247;28;67496;-63
2022/12/19 00:17:49;;;;;;;;;32.00;23.25;;;;;7.51;62.93;101236.13;5037630;28;65452;-64
2022/12/19 00:20:15;;;;;;;;;27.75;20.75;;;;;7.53;62.70;101235.22;5053211;28;45485;-63
2022/12/19 00:22:40;;;;;;;;;30.50;24.75;;;;;7.56;62.56;101234.31;5042213;28;61506;-63
2022/12/19 00:25:06;;;;;;;;;23.75;21.00;;;;;7.57;62.83;101236.06;5040208;28;64522;-64
2022/12/19 00:27:34;;;;;;;;;26.75;22.75;;;;;7.60;63.66;101225.63;5044045;28;46137;-64
2022/12/19 00:30:00;;;;;;;;;25.25;18.00;;;;;7.60;62.69;101225.63;5047879;28;46239;-64
2022/12/19 00:32:25;;;;;;;;;24.75;20.75;;;;;7.58;62.53;101228.25;5045009;28;55662;-63
2022/12/19 00:34:50;;;;;;;;;24.50;21.00;;;;;7.62;62.67;101230.84;5055957;28;45396;-62
2022/12/19 00:37:16;;;;;;;;;24.75;21.50;;;;;7.60;62.71;101223.88;5050292;28;64223;-63
2022/12/19 00:39:41;;;;;;;;;30.00;21.50;;;;;7.60;62.83;101216.06;5046177;28;45510;-62
2022/12/19 00:42:06;;;;;;;;;20.75;20.00;;;;;7.64;62.35;101210.84;5043116;28;57943;-63
2022/12/19 00:44:32;;;;;;;;;21.50;19.25;;;;;7.65;62.61;101210.84;5048328;28;45389;-63
2022/12/19 00:46:57;;;;;;;;;25.50;19.00;;;;;7.66;62.79;101196.94;5045233;28;46000;-63
2022/12/19 00:49:23;;;;;;;;;23.75;18.75;;;;;7.69;62.57;101196.06;5042919;28;64264;-62
2022/12/19 00:51:48;;;;;;;;;23.50;22.25;;;;;7.71;62.39;101196.91;5041601;28;45216;-62
2022/12/19 00:54:14;;;;;;;;;28.00;19.25;;;;;7.73;62.67;101192.53;5044756;28;45496;-63
2022/12/19 00:56:39;;;;;;;;;17.00;15.50;;;;;7.73;62.42;101187.34;5046791;28;46282;-64
2022/12/19 00:59:05;;;;;;;;;21.50;19.25;;;;;7.74;62.53;101182.13;5041636;28;45388;-62
2022/12/19 01:01:33;;;;;;;;;19.25;14.75;;;;;7.76;62.54;101184.72;5047668;28;45504;-62
2022/12/19 01:03:59;;;;;;;;;28.75;20.75;;;;;7.78;62.40;101186.41;5049872;28;45463;-63
2022/12/19 01:06:26;;;;;;;;;29.50;20.75;;;;;7.81;62.21;101185.53;5047635;28;48188;-64
2022/12/19 01:08:52;;;;;;;;;20.50;18.00;;;;;7.80;62.99;101181.19;5052488;28;45873;-63
2022/12/19 01:12:44;;;;;;;;;21.50;16.00;;;;;7.77;62.50;101186.41;5044917;28;45653;-63
2022/12/19 01:14:02;;;;;;;;;26.25;19.00;;;;;7.77;62.53;101181.22;5052352;28;45451;-63
2022/12/19 01:16:28;;;;;;;;;11.50;11.50;;;;;7.76;62.32;101192.53;5046637;28;49944;-62
2022/12/19 01:18:53;;;;;;;;;19.75;15.25;;;;;7.79;62.79;101184.66;5044864;28;62963;-63
2022/12/19 01:21:18;;;;;;;;;22.25;18.25;;;;;7.79;62.42;101180.34;5043373;28;62329;-62
2022/12/19 01:23:44;;;;;;;;;24.75;17.75;;;;;7.80;62.52;101195.06;5040996;28;46322;-63
2022/12/19 01:26:09;;;;;;;;;25.25;18.00;;;;;7.83;62.52;101198.56;5041914;28;68575;-63
2022/12/19 01:28:34;;;;;;;;;23.75;18.00;;;;;7.85;62.44;101197.66;5049615;28;58820;-62
2022/12/19 01:31:04;;;;;;;;;18.00;15.00;;;;;7.88;62.40;101200.25;5052757;28;45741;-63
2022/12/19 01:33:29;;;;;;;;;24.50;17.00;;;;;7.90;62.45;101190.66;5044132;28;45533;-62
2022/12/19 01:35:55;;;;;;;;;19.50;15.50;;;;;7.92;62.22;101198.47;5042065;28;62475;-63
2022/12/19 01:38:20;;;;;;;;;22.25;18.00;;;;;7.95;62.16;101201.03;5046886;28;56638;-63
2022/12/19 01:41:04;;;;;;;;;24.00;16.50;;;;;7.97;62.23;101200.16;5047332;28;45383;-63
2022/12/19 01:43:32;;;;;;;;;24.25;19.25;;;;;7.97;62.02;101196.69;5048307;28;61688;-63
2022/12/19 01:46:03;;;;;;;;;20.75;18.75;;;;;7.99;62.20;101192.34;5046481;28;45324;-63
2022/12/19 01:48:34;;;;;;;;;24.50;19.25;;;;;7.98;62.17;101180.16;5042514;28;45914;-63
2022/12/19 01:51:16;;;;;;;;;19.50;17.50;;;;;8.00;62.19;101181.00;5044939;28;45269;-63
2022/12/19 01:53:51;;;;;;;;;22.75;16.50;;;;;8.01;62.13;101187.97;5026533;28;45252;-63
2022/12/19 01:56:45;;;;;;;;;20.50;18.00;;;;;8.04;62.14;101187.06;5028513;28;45303;-62
2022/12/19 01:59:38;;;;;;;;;20.25;16.25;;;;;8.05;62.22;101191.41;5043179;28;47433;-62
2022/12/19 02:02:10;;;;;;;;;22.25;19.50;;;;;8.06;62.19;101194.00;5044023;28;46064;-62
2022/12/19 02:04:36;;;;;;;;;22.25;18.50;;;;;8.08;61.88;101196.59;5041271;28;45503;-62
2022/12/19 02:07:03;;;;;;;;;19.00;17.00;;;;;8.06;62.23;101188.78;5048637;28;64939;-61
2022/12/19 02:09:28;;;;;;;;;19.00;17.00;;;;;8.08;62.17;101197.44;5034655;28;46263;-62
2022/12/19 02:11:54;;;;;;;;;24.25;17.25;;;;;8.09;62.04;101191.38;5043268;28;56832;-62
2022/12/19 02:14:19;;;;;;;;;19.00;16.00;;;;;8.11;62.06;101193.94;5050876;28;46476;-62
2022/12/19 02:16:57;;;;;;;;;18.50;17.00;;;;;8.12;62.26;101187.88;5042784;28;45438;-62
2022/12/19 02:19:55;;;;;;;;;17.75;15.00;;;;;8.13;62.26;101200.88;5039760;28;46019;-63
2022/12/19 02:22:47;;;;;;;;;15.75;15.50;;;;;8.13;62.52;101195.66;5042422;28;45455;-62
2022/12/19 02:25:35;;;;;;;;;20.25;13.25;;;;;8.13;62.38;101195.66;5052618;28;45679;-62
2022/12/19 02:28:26;;;;;;;;;19.00;16.00;;;;;8.16;61.97;101193.03;5045949;28;45449;-62
2022/12/19 02:31:07;;;;;;;;;17.75;15.25;;;;;8.15;62.40;101199.13;5044313;28;45282;-62
2022/12/19 02:33:53;;;;;;;;;19.50;13.25;;;;;8.14;62.27;101194.81;5046411;28;45448;-63
2022/12/19 02:36:34;;;;;;;;;16.50;15.25;;;;;8.15;62.19;101201.72;5044294;28;45501;-62
2022/12/19 02:39:03;;;;;;;;;18.25;16.25;;;;;8.16;62.53;101203.47;5050319;28;45501;-62
2022/12/19 02:41:44;;;;;;;;;18.00;15.75;;;;;8.17;62.25;101197.34;5046228;28;45830;-62
2022/12/19 02:44:18;;;;;;;;;21.00;16.00;;;;;8.18;62.67;101193.88;5041986;28;45399;-62
2022/12/19 02:46:45;;;;;;;;;18.00;16.25;;;;;8.18;62.45;101190.44;5048819;28;45442;-62
2022/12/19 02:49:11;;;;;;;;;20.75;16.25;;;;;8.21;62.36;101198.19;5057612;28;45791;-62
2022/12/19 02:51:36;;;;;;;;;18.75;16.00;;;;;8.20;62.96;101183.44;5040038;28;45380;-62
2022/12/19 02:54:02;;;;;;;;;18.25;14.75;;;;;8.18;62.47;101193.03;5049215;28;45348;-62
2022/12/19 02:56:48;;;;;;;;;22.50;16.75;;;;;8.22;62.60;101193.88;5041893;28;45473;-62
2022/12/19 02:59:17;;;;;;;;;23.50;17.50;;;;;8.21;62.71;101192.97;5052065;28;46308;-63
2022/12/19 03:01:56;;;;;;;;;17.50;14.50;;;;;8.22;62.52;101188.66;5041473;28;45513;-62
2022/12/19 03:04:44;;;;;;;;;19.00;17.00;;;;;8.24;62.89;101179.91;5041954;28;46101;-62
2022/12/19 03:07:23;;;;;;;;;18.00;16.25;;;;;8.27;62.70;101186.84;5040349;28;45643;-62
2022/12/19 03:10:04;;;;;;;;;18.75;14.25;;;;;8.29;62.85;101182.50;5047196;28;46021;-63
2022/12/19 03:12:36;;;;;;;;;18.75;16.75;;;;;8.29;62.99;101185.97;5041105;28;45438;-62
2022/12/19 03:15:03;;;;;;;;;16.50;14.25;;;;;8.33;62.85;101187.63;5051467;28;45441;-63
2022/12/19 03:17:34;;;;;;;;;21.25;14.50;;;;;8.36;63.06;101181.53;5038808;28;45532;-62
2022/12/19 03:19:59;;;;;;;;;17.50;14.25;;;;;8.38;62.99;101178.94;5038913;28;45652;-62
2022/12/19 03:22:25;;;;;;;;;18.75;12.00;;;;;8.35;63.03;101180.66;5038346;28;45491;-62
2022/12/19 03:24:51;;;;;;;;;17.00;16.00;;;;;8.35;63.21;101179.81;5040057;28;50775;-62
2022/12/19 03:27:26;;;;;;;;;18.00;16.00;;;;;8.33;63.04;101179.81;5046426;28;45543;-61
2022/12/19 03:30:04;;;;;;;;;18.25;15.50;;;;;8.34;63.21;101180.72;5040269;28;47504;-62
2022/12/19 03:32:30;;;;;;;;;18.00;17.00;;;;;8.31;63.37;101183.34;5045223;28;45533;-63
2022/12/19 03:35:02;;;;;;;;;14.75;12.00;;;;;8.31;63.51;101181.59;5047898;28;45490;-62
2022/12/19 03:37:31;;;;;;;;;21.25;14.00;;;;;8.33;63.49;101186.78;5054252;28;45711;-62
2022/12/19 03:40:02;;;;;;;;;17.50;13.25;;;;;8.35;63.45;101171.97;5049727;28;45451;-63
2022/12/19 03:45:19;;;;;;;;;15.50;11.25;;;;;8.38;63.41;101173.72;5044042;28;45562;-62
2022/12/19 03:47:50;;;;;;;;;15.00;12.50;;;;;8.38;63.27;101169.34;5041232;28;45508;-62
2022/12/19 03:50:16;;;;;;;;;16.25;13.50;;;;;8.41;63.06;101171.03;5047703;28;46190;-62
2022/12/19 03:53:26;;;;;;;;;10.75;7.50;;;;;8.42;62.88;101178.88;5038544;28;62234;-62
2022/12/19 03:56:02;;;;;;;;;16.00;14.75;;;;;8.43;63.54;101183.25;5013315;28;45518;-62
2022/12/19 03:58:34;;;;;;;;;12.00;11.75;;;;;8.44;63.36;101173.66;5003988;28;45513;-62
2022/12/19 04:01:01;;;;;;;;;16.00;11.25;;;;;8.46;63.24;101170.13;5033124;28;46526;-62
2022/12/19 04:03:27;;;;;;;;;13.25;10.00;;;;;8.50;63.31;101176.22;5048682;28;45805;-62
2022/12/19 04:05:54;;;;;;;;;13.75;12.25;;;;;8.51;63.28;101177.94;5046496;28;45467;-62
2022/12/19 04:08:20;;;;;;;;;19.25;13.00;;;;;8.53;63.40;101179.66;5050633;28;45550;-62
2022/12/19 04:11:00;;;;;;;;;9.75;9.00;;;;;8.53;63.33;101174.44;5045073;28;45501;-62
2022/12/19 04:13:43;;;;;;;;;9.25;8.50;;;;;8.57;63.37;101182.19;5051829;28;45896;-63
2022/12/19 04:16:26;;;;;;;;;12.75;11.00;;;;;8.57;63.16;101184.81;5050678;28;45474;-63
2022/12/19 04:18:58;;;;;;;;;16.50;12.00;;;;;8.59;63.57;101186.53;5051848;28;45592;-62
2022/12/19 04:21:31;;;;;;;;;12.50;11.00;;;;;8.60;63.24;101192.63;5051061;28;45332;-62
2022/12/19 04:24:02;;;;;;;;;16.50;11.50;;;;;8.60;63.52;101187.41;5046354;28;45443;-62
2022/12/19 04:26:30;;;;;;;;;14.25;13.25;;;;;8.60;63.55;101185.63;5050908;28;45270;-63
2022/12/19 04:28:59;;;;;;;;;22.25;15.25;;;;;8.61;63.51;101186.53;5048720;28;60243;-62
2022/12/19 04:31:25;;;;;;;;;12.50;10.00;;;;;8.61;63.62;101181.31;5043513;28;45412;-62
2022/12/19 04:33:50;;;;;;;;;13.75;12.50;;;;;8.62;63.50;101177.81;5051114;28;57824;-62
2022/12/19 04:36:15;;;;;;;;;15.25;11.75;;;;;8.64;63.63;101183.84;5047101;28;55067;-62
2022/12/19 04:38:41;;;;;;;;;13.50;11.50;;;;;8.66;63.54;101182.97;5045574;28;63902;-63
2022/12/19 04:41:06;;;;;;;;;17.25;12.25;;;;;8.66;63.75;101182.97;5047016;28;45482;-62
2022/12/19 04:43:32;;;;;;;;;14.75;10.25;;;;;8.66;63.44;101182.97;5049091;28;45449;-63
2022/12/19 04:45:57;;;;;;;;;14.25;11.50;;;;;8.66;63.62;101182.13;5047613;28;59900;-62
2022/12/19 04:48:22;;;;;;;;;12.25;12.00;;;;;8.68;63.41;101180.34;5055401;28;67000;-62
2022/12/19 04:50:48;;;;;;;;;13.50;11.00;;;;;8.70;63.86;101175.97;5050774;28;63398;-62
2022/12/19 04:53:13;;;;;;;;;13.00;10.75;;;;;8.72;63.36;101169.00;5055095;28;47001;-63
2022/12/19 04:55:39;;;;;;;;;16.25;11.75;;;;;8.75;63.48;101182.00;5046950;28;45313;-63
2022/12/19 04:58:06;;;;;;;;;12.50;10.25;;;;;8.76;63.55;101182.84;5045859;28;45482;-62
2022/12/19 05:00:31;;;;;;;;;11.75;11.25;;;;;8.77;63.48;101180.22;5041642;28;45508;-62
2022/12/19 05:02:57;;;;;;;;;13.50;10.00;;;;;8.80;63.52;101179.31;5047223;28;45360;-62
2022/12/19 05:05:22;;;;;;;;;14.00;10.75;;;;;8.83;63.31;101179.28;5050228;28;62051;-62
2022/12/19 05:07:47;;;;;;;;;13.25;12.00;;;;;8.82;63.35;101177.53;5052655;28;62392;-63
2022/12/19 05:10:13;;;;;;;;;10.25;9.50;;;;;8.84;63.31;101168.84;5048742;28;58970;-62
2022/12/19 05:12:38;;;;;;;;;11.50;11.25;;;;;8.85;63.52;101169.69;5042709;28;45347;-62
2022/12/19 05:15:04;;;;;;;;;10.75;10.25;;;;;8.85;63.50;101164.47;5046448;28;46792;-62
2022/12/19 05:17:30;;;;;;;;;11.50;9.00;;;;;8.86;63.32;101177.50;5041065;28;45666;-62
2022/12/19 05:19:55;;;;;;;;;10.50;9.75;;;;;8.86;63.30;101172.28;5047366;28;56944;-62
2022/12/19 05:22:20;;;;;;;;;12.50;11.50;;;;;8.85;63.21;101160.13;5043900;28;64452;-63
2022/12/19 05:24:46;;;;;;;;;11.00;8.75;;;;;8.85;63.41;101164.47;5048928;28;55738;-63
2022/12/19 05:27:11;;;;;;;;;9.00;8.00;;;;;8.88;63.14;101175.72;5042736;28;45503;-62
2022/12/19 05:29:36;;;;;;;;;10.75;9.25;;;;;8.88;63.24;101173.13;5054622;28;65049;-63
2022/12/19 05:32:02;;;;;;;;;14.25;10.50;;;;;8.92;63.47;101181.78;5042473;28;63046;-62
2022/12/19 05:34:27;;;;;;;;;13.50;11.00;;;;;8.95;63.15;101175.66;5044296;28;45484;-62
2022/12/19 05:36:53;;;;;;;;;11.25;10.75;;;;;8.93;63.30;101176.53;5052161;28;45707;-63
2022/12/19 05:39:18;;;;;;;;;11.00;9.50;;;;;8.92;63.33;101185.28;5052011;28;46270;-63
2022/12/19 05:41:43;;;;;;;;;12.75;11.75;;;;;8.96;63.54;101179.97;5048264;28;66995;-62
2022/12/19 05:44:09;;;;;;;;;13.50;12.00;;;;;8.96;63.28;101188.69;5041395;28;55991;-63
2022/12/19 05:46:34;;;;;;;;;10.75;10.50;;;;;8.98;63.36;101186.03;5045803;28;45513;-63
2022/12/19 05:48:59;;;;;;;;;12.50;9.50;;;;;9.01;63.40;101188.63;5040548;28;64797;-62
2022/12/19 05:51:25;;;;;;;;;12.50;11.50;;;;;9.02;63.07;101183.38;5040679;28;45219;-62
2022/12/19 05:53:50;;;;;;;;;14.00;11.00;;;;;9.02;63.28;101179.91;5050857;28;45216;-62
2022/12/19 05:56:19;;;;;;;;;11.25;11.00;;;;;9.03;63.47;101181.63;5041733;28;59949;-62
2022/12/19 05:58:44;;;;;;;;;14.00;10.50;;;;;9.03;63.55;101181.63;5044768;28;45475;-62
2022/12/19 06:01:15;;;;;;;;;2.00;0.00;;;;;9.03;63.92;101176.41;5042492;28;45331;-62
2022/12/19 06:03:41;;;;;;;;;13.50;10.75;;;;;9.04;63.43;101180.75;5039991;28;47077;-62
2022/12/19 06:06:09;;;;;;;;;16.25;11.50;;;;;9.04;63.57;101176.38;5043474;28;45814;-62
2022/12/19 06:08:35;;;;;;;;;11.75;10.50;;;;;9.04;63.60;101184.22;5041989;28;45424;-63
2022/12/19 06:11:02;;;;;;;;;15.00;11.75;;;;;9.06;63.60;101189.44;5043638;28;45331;-62
2022/12/19 06:13:28;;;;;;;;;14.25;11.75;;;;;9.06;63.95;101186.81;5044156;28;45412;-63
2022/12/19 06:16:03;;;;;;;;;13.00;10.00;;;;;9.05;63.57;101185.09;5045640;28;46561;-63
2022/12/19 06:18:29;;;;;;;;;10.50;10.00;;;;;9.05;63.62;101183.34;5036273;28;48268;-62
2022/12/19 06:20:59;;;;;;;;;13.50;12.50;;;;;9.08;63.49;101187.66;5053010;28;47103;-62
2022/12/19 06:23:25;;;;;;;;;11.00;10.00;;;;;9.07;63.65;101184.19;5048724;28;45431;-63
2022/12/19 06:25:50;;;;;;;;;16.50;10.50;;;;;9.07;63.71;101184.19;5046298;28;45474;-63
2022/12/19 06:28:16;;;;;;;;;13.50;11.50;;;;;9.08;63.62;101182.44;5045427;28;69219;-61
2022/12/19 06:30:41;;;;;;;;;11.75;9.75;;;;;9.09;63.66;101184.19;5051450;28;69408;-63
2022/12/19 06:33:06;;;;;;;;;11.75;10.25;;;;;9.10;63.59;101176.31;5052490;28;45351;-62
2022/12/19 06:35:32;;;;;;;;;12.50;10.50;;;;;9.13;63.65;101181.47;5044687;28;55476;-62
2022/12/19 06:37:57;;;;;;;;;18.00;10.50;;;;;9.13;63.47;101175.41;5047071;28;50983;-63
2022/12/19 06:43:06;;;;;;;;;12.00;10.00;;;;;9.14;63.95;101174.53;5046529;28;45553;-64
2022/12/19 06:45:32;;;;;;;;;14.50;11.75;;;;;9.12;63.68;101176.31;5042770;28;55005;-62
2022/12/19 06:47:57;;;;;;;;;18.00;13.00;;;;;9.15;63.62;101175.38;5047367;28;56132;-63
2022/12/19 06:50:23;;;;;;;;;15.50;11.25;;;;;9.16;63.64;101171.91;5043752;28;45502;-62
2022/12/19 06:52:48;;;;;;;;;12.00;11.00;;;;;9.16;63.70;101172.75;5050325;28;45365;-63
2022/12/19 06:55:13;;;;;;;;;12.25;10.00;;;;;9.17;63.71;101174.50;5047981;28;45370;-63
2022/12/19 06:57:44;;;;;;;;;14.50;12.25;;;;;9.21;63.70;101173.56;5048294;28;45233;-64
2022/12/19 07:00:14;;;;;;;;;12.00;10.75;;;;;9.22;63.54;101164.81;5030330;28;47189;-62
2022/12/19 07:02:42;;;;;;;;;13.25;13.25;;;;;9.24;63.50;101175.25;5044788;28;45472;-63
2022/12/19 07:05:08;;;;;;;;;11.00;10.50;;;;;9.25;63.35;101177.84;5043375;28;45507;-62
2022/12/19 07:07:34;;;;;;;;;11.25;10.25;;;;;9.27;63.38;101172.59;5045521;28;48022;-63
2022/12/19 07:09:59;;;;;;;;;13.25;10.75;;;;;9.30;63.46;101177.78;5054854;28;45430;-62
2022/12/19 07:12:25;;;;;;;;;14.00;11.00;;;;;9.30;63.67;101183.88;5045152;28;45449;-62
2022/12/19 07:14:50;;;;;;;;;15.25;11.50;;;;;9.29;63.56;101173.44;5046065;28;45457;-62
2022/12/19 07:17:16;;;;;;;;;15.25;11.00;;;;;9.30;63.67;101173.41;5045593;28;45409;-62
2022/12/19 07:19:42;;;;;;;;;11.25;10.00;;;;;9.32;63.61;101176.88;5047120;28;45313;-64
2022/12/19 07:22:08;;;;;;;;;14.25;12.75;;;;;9.34;63.49;101176.00;5051227;28;45403;-62
2022/12/19 07:24:34;;;;;;;;;12.25;7.00;;;;;9.34;63.82;101176.00;5051007;28;45546;-62
2022/12/19 07:27:00;;;;;;;;;17.50;12.00;;;;;9.33;63.96;101182.97;5046002;28;45435;-61
2022/12/19 07:29:25;;;;;;;;;12.75;9.50;;;;;9.34;63.43;101186.44;5052887;28;45234;-61
2022/12/19 07:31:51;;;;;;;;;16.25;11.00;;;;;9.35;63.66;101186.41;5046582;28;45898;-63
2022/12/19 07:34:16;;;;;;;;;11.00;10.00;;;;;9.36;63.33;101188.13;5052813;28;45596;-61
2022/12/19 07:36:41;;;;;;;;;13.00;10.50;;;;;9.35;63.34;101170.75;5047989;28;45474;-60
2022/12/19 07:39:07;;;;;;;;;16.75;11.00;;;;;9.39;63.32;101187.25;5051283;28;48086;-62
2022/12/19 07:41:35;;;;;;;;;13.00;12.00;;;;;9.38;63.17;101194.19;5030344;28;45628;-62
2022/12/19 07:44:01;;;;;;;;;16.25;12.00;;;;;9.38;63.58;101201.19;5047434;28;45212;-62
2022/12/19 07:46:29;;;;;;;;;12.25;11.25;;;;;9.38;63.17;101193.34;5034967;28;48101;-61
2022/12/19 07:48:58;;;;;;;;;12.00;10.50;;;;;9.35;63.04;101186.41;5047579;28;45734;-62
2022/12/19 07:51:23;;;;;;;;;12.75;11.50;;;;;9.37;63.05;101187.25;5047104;28;45528;-62
2022/12/19 07:53:49;;;;;;;;;9.75;9.75;;;;;9.38;63.27;101185.50;5057211;28;45812;-61
2022/12/19 07:56:15;;;;;;;;;12.00;12.00;;;;;9.37;63.00;101184.66;5045782;28;45433;-62
2022/12/19 07:58:41;;;;;;;;;10.25;9.50;;;;;9.38;62.92;101191.56;5046798;28;45271;-62
2022/12/19 08:01:06;;;;;;;;;12.75;9.75;;;;;9.37;63.17;101191.63;5040858;28;45459;-62
2022/12/19 08:03:32;;;;;;;;;11.00;9.75;;;;;9.39;63.28;101195.06;5050969;28;45593;-62
2022/12/19 08:05:59;;;;;;;;;12.50;10.25;;;;;9.40;63.26;101207.22;5033588;28;45478;-62
2022/12/19 08:08:25;;;;;;;;;10.75;8.25;;;;;9.41;62.98;101208.97;5047586;28;45641;-63
2022/12/19 08:10:50;;;;;;;;;11.25;10.75;;;;;9.41;63.17;101211.59;5052905;28;45381;-62
2022/12/19 08:13:15;;;;;;;;;14.50;10.25;;;;;9.44;63.20;101216.78;5043695;28;45562;-62
2022/12/19 08:15:41;;;;;;;;;14.00;10.50;;;;;9.46;63.65;101215.00;5040169;28;46294;-62
2022/12/19 08:18:07;;;;;;;;;12.75;11.00;;;;;9.46;63.08;101209.78;5047372;28;46405;-64
2022/12/19 08:20:33;;;;;;;;;12.75;10.25;;;;;9.48;62.98;101214.06;5029532;28;45492;-63
2022/12/19 08:22:58;;;;;;;;;12.00;10.25;;;;;9.49;63.11;101200.13;5047269;28;45534;-63
2022/12/19 08:25:24;;;;;;;;;11.25;10.25;;;;;9.50;62.72;101204.47;5039553;28;45502;-63
2022/12/19 08:27:49;;;;;;;;;12.00;12.00;;;;;9.52;62.93;101209.66;5031339;28;45404;-64
2022/12/19 08:30:15;;;;;;;;;13.50;10.50;;;;;9.54;62.86;101212.25;5038668;28;45485;-63
2022/12/19 08:32:40;;;;;;;;;14.00;10.75;;;;;9.53;62.85;101215.78;5044491;28;45375;-63
2022/12/19 08:35:06;;;;;;;;;11.75;9.25;;;;;9.54;62.77;101218.34;5035931;28;47211;-62
2022/12/19 08:37:32;;;;;;;;;12.00;9.00;;;;;9.57;62.97;101217.44;5040878;28;45495;-63
2022/12/19 08:39:57;;;;;;;;;11.00;9.25;;;;;9.55;62.91;101198.31;5041953;28;45274;-63
2022/12/19 08:42:23;;;;;;;;;12.50;9.75;;;;;9.60;62.87;101205.19;5052348;28;45506;-64
2022/12/19 08:44:48;;;;;;;;;12.25;9.25;;;;;9.62;62.86;101205.19;5043376;28;46512;-62
2022/12/19 08:47:14;;;;;;;;;14.00;10.50;;;;;9.64;62.62;101214.72;5043667;28;45376;-63
2022/12/19 08:49:40;;;;;;;;;13.50;9.25;;;;;9.63;62.68;101215.63;5043559;28;45520;-63
2022/12/19 08:52:05;;;;;;;;;14.75;11.00;;;;;9.68;62.41;101223.34;5051461;28;45511;-63
2022/12/19 08:54:31;;;;;;;;;14.50;12.25;;;;;9.67;62.61;101219.91;5056794;28;45211;-63
2022/12/19 08:56:57;;;;;;;;;14.75;13.75;;;;;9.68;62.41;101221.63;5044667;28;45296;-63
2022/12/19 08:59:22;;;;;;;;;21.25;13.00;;;;;9.71;62.91;101215.47;5054409;28;45677;-63
2022/12/19 09:01:48;;;;;;;;;17.00;11.00;;;;;9.74;62.29;101217.16;5058452;28;45598;-64
2022/12/19 09:04:13;;;;;;;;;16.00;10.50;;;;;9.77;62.43;101215.38;5052854;28;45452;-63
2022/12/19 09:06:40;;;;;;;;;12.25;11.25;;;;;9.78;62.07;101213.66;5056966;28;45346;-64
2022/12/19 09:09:06;;;;;;;;;14.50;10.00;;;;;9.79;62.24;101208.41;5029962;28;47209;-64
2022/12/19 09:11:31;;;;;;;;;15.50;11.75;;;;;9.82;61.89;101208.31;5043268;28;45247;-64
2022/12/19 09:13:57;;;;;;;;;13.75;11.00;;;;;9.83;61.69;101210.06;5041975;28;45493;-64
2022/12/19 09:16:24;;;;;;;;;13.25;10.75;;;;;9.85;61.87;101213.50;5044875;28;44789;-64
2022/12/19 09:18:53;;;;;;;;;9.00;4.00;;;;;9.90;61.96;101213.44;5037221;28;45408;-64
2022/12/19 09:21:21;;;;;;;;;15.25;10.25;;;;;9.92;61.80;101216.03;5054856;28;45454;-63
2022/12/19 09:23:53;;;;;;;;;13.00;10.75;;;;;9.94;61.47;101219.47;5041283;28;45787;-64
2022/12/19 09:26:21;;;;;;;;;11.75;9.50;;;;;9.96;61.60;101222.94;5045888;28;45874;-64
2022/12/19 09:28:47;;;;;;;;;12.75;9.25;;;;;9.94;61.54;101215.09;5045252;28;45312;-64
2022/12/19 09:31:15;;;;;;;;;19.75;16.00;;;;;9.96;61.60;101210.72;5052914;28;45340;-64
2022/12/19 09:33:41;;;;;;;;;17.50;13.25;;;;;9.99;61.65;101225.50;5048684;28;45188;-63
2022/12/19 09:36:09;;;;;;;;;11.00;6.00;;;;;10.01;61.62;101228.94;5044606;28;45335;-62
2022/12/19 09:38:35;;;;;;;;;13.75;9.25;;;;;10.05;61.22;101234.09;5040655;28;45424;-62
2022/12/19 09:41:00;;;;;;;;;13.75;7.00;;;;;10.08;61.38;101235.81;5043046;28;45397;-63
2022/12/19 09:43:56;;;;;;;;;14.50;12.25;;;;;10.12;61.21;101239.22;5047418;28;46572;-63
2022/12/19 09:46:47;;;;;;;;;14.00;10.75;;;;;10.14;61.25;101240.91;5044547;28;45377;-62
2022/12/19 09:49:15;;;;;;;;;25.00;15.00;;;;;10.15;61.34;101245.25;5046706;28;45309;-63
2022/12/19 09:51:56;;;;;;;;;10.25;7.00;;;;;10.17;61.02;101248.72;5046986;28;45577;-62
2022/12/19 09:54:26;;;;;;;;;15.75;11.25;;;;;10.20;61.03;101251.28;5042864;28;45570;-62
2022/12/19 09:56:57;;;;;;;;;17.25;11.50;;;;;10.24;60.88;101246.88;5045750;28;45221;-63
2022/12/19 09:59:31;;;;;;;;;9.50;8.50;;;;;10.26;60.99;101247.69;5046512;28;45544;-63
2022/12/19 10:02:19;;;;;;;;;16.00;12.50;;;;;10.27;60.61;101237.22;5052927;28;45468;-62
2022/12/19 10:04:52;;;;;;;;;14.50;13.25;;;;;10.29;60.64;101231.06;5048185;28;45448;-62
2022/12/19 10:07:18;;;;;;;;;17.00;14.00;;;;;10.30;60.49;101241.50;5052312;28;45765;-63
2022/12/19 10:09:43;;;;;;;;;13.00;11.00;;;;;10.30;60.62;101235.41;5046547;28;45447;-64
2022/12/19 10:12:34;;;;;;;;;12.75;9.75;;;;;10.33;60.33;101238.03;5046300;28;45469;-64
2022/12/19 10:15:13;;;;;;;;;11.00;10.25;;;;;10.35;60.48;101231.88;5046544;28;45244;-64
2022/12/19 10:18:01;;;;;;;;;16.75;10.00;;;;;10.36;60.24;101223.13;5052031;28;45312;-64
2022/12/19 10:20:29;;;;;;;;;18.00;12.75;;;;;10.39;60.14;101228.31;5046660;28;45273;-64
2022/12/19 10:23:01;;;;;;;;;36.75;19.00;;;;;10.41;60.32;101225.66;5039313;28;45574;-63
2022/12/19 10:25:49;;;;;;;;;20.75;15.00;;;;;10.44;60.36;101221.22;5047584;28;45898;-62
2022/12/19 10:28:25;;;;;;;;;18.00;13.00;;;;;10.47;60.34;101224.69;5046825;28;45439;-63
2022/12/19 10:31:02;;;;;;;;;13.75;11.75;;;;;10.51;60.18;101226.34;5045620;28;45619;-63
2022/12/19 10:33:35;;;;;;;;;15.50;12.00;;;;;10.56;59.94;101209.66;5049481;28;45497;-64
2022/12/19 10:36:00;;;;;;;;;17.00;10.00;;;;;10.61;59.94;101222.69;5045687;28;46319;-64
2022/12/19 10:38:37;;;;;;;;;14.00;10.25;;;;;10.66;59.65;101218.22;5050953;28;45495;-64
2022/12/19 10:41:22;;;;;;;;;16.00;11.50;;;;;10.70;59.75;101219.88;5043176;28;45539;-65
2022/12/19 10:43:52;;;;;;;;;14.25;13.50;;;;;10.72;59.62;101212.00;5045603;28;45325;-63
2022/12/19 10:46:31;;;;;;;;;12.00;10.50;;;;;10.73;58.87;101209.34;5043299;28;45376;-62
2022/12/19 10:48:56;;;;;;;;;16.50;14.50;;;;;10.74;58.96;101211.06;5040493;28;45325;-62
2022/12/19 10:51:25;;;;;;;;;10.00;8.50;;;;;10.76;59.46;101211.88;5041596;28;45606;-62
2022/12/19 10:53:55;;;;;;;;;11.50;11.50;;;;;10.80;59.11;101210.94;5047081;28;45387;-62
2022/12/19 10:56:23;;;;;;;;;15.75;11.50;;;;;10.82;59.27;101218.78;5049235;28;46408;-62
2022/12/19 10:58:56;;;;;;;;;16.00;9.75;;;;;10.85;59.09;101205.59;5056431;28;45518;-62
2022/12/19 11:01:28;;;;;;;;;7.75;6.75;;;;;10.87;58.92;101206.47;5046365;28;45371;-61
2022/12/19 11:04:21;;;;;;;;;14.00;11.00;;;;;10.89;58.95;101207.28;5054581;28;45451;-62
2022/12/19 11:07:02;;;;;;;;;14.75;12.75;;;;;10.93;59.27;101205.47;5041313;28;45409;-62
2022/12/19 11:09:29;;;;;;;;;15.50;11.75;;;;;10.94;58.98;101200.19;5047798;28;46001;-62
2022/12/19 11:12:07;;;;;;;;;11.25;10.25;;;;;10.97;58.92;101200.09;5046861;28;45475;-63
2022/12/19 11:14:34;;;;;;;;;15.00;11.50;;;;;10.99;59.26;101213.19;5042439;28;45272;-62
2022/12/19 11:16:59;;;;;;;;;15.75;10.00;;;;;11.00;58.88;101202.66;5044190;28;47438;-63
2022/12/19 11:19:37;;;;;;;;;12.25;10.00;;;;;11.00;58.70;101197.44;5043515;28;45462;-61
2022/12/19 11:22:05;;;;;;;;;14.75;12.00;;;;;10.97;58.85;101194.88;5053351;28;45481;-62
2022/12/19 11:24:45;;;;;;;;;13.00;9.25;;;;;11.00;59.03;101201.81;5055209;28;45494;-63
2022/12/19 11:27:30;;;;;;;;;14.50;10.25;;;;;11.00;58.81;101197.44;5045398;28;46489;-63
2022/12/19 11:29:58;;;;;;;;;19.00;12.50;;;;;11.04;58.58;101192.13;5048241;28;45783;-63
2022/12/19 11:32:38;;;;;;;;;13.75;12.50;;;;;11.05;58.24;101180.75;5040682;28;45632;-63